• Join FlightAware (Why Join?)
  • Login
  • US Flag 
12:23AM EDT


 

Airport Tracker/Info


-or-


 

Live Flight TrackerFlight Track Log ✈ SWA3960 ✈ 15-Mar-2014 ✈ KJAX - KBNA

Flight Track Log - Related Links

Times and Time Zones

All times are in EDT time to prevent confusion due to time zone crossing. See the SWA3960 flight status page for this flight to view local times or setup timezone preferences in your user account.

Time Position Orientation Groundspeed Altitude Reporting Facility
EDT Latitude Longitude Course Direction KTS MPH feet Rate Location/Type
03:23PM 30.4950 -81.7114 321° Northwest 171 197 800  Level Jacksonville Center
03:23PM 30.5075 -81.7231 294° West 169 194 1,300 2,040 Climbing Jacksonville Center
03:24PM 30.5264 -81.7422 319° Northwest 216 249 2,300 2,400 Climbing Jacksonville Center
03:24PM 30.5581 -81.7683 325° Northwest 232 267 3,700 2,760 Climbing Jacksonville Center
03:25PM 30.6106 -81.8064 328° Northwest 273 314 6,600 3,060 Climbing Jacksonville Center
03:26PM 30.6736 -81.8539 327° Northwest 273 314 9,900 2,400 Climbing Jacksonville Center
03:27PM 30.7450 -81.9089 326° Northwest 291 335 11,400 2,160 Climbing Jacksonville Center
03:28PM 30.8247 -81.9683 327° Northwest 322 371 14,300 2,580 Climbing Jacksonville Center
03:29PM 30.9089 -82.0306 328° Northwest 340 391 16,600 1,980 Climbing Jacksonville Center
03:30PM 30.9906 -82.1025 323° Northwest 360 414 18,300 2,160 Climbing Jacksonville Center
03:31PM 31.0767 -82.1747 324° Northwest 366 421 21,000 2,280 Climbing Jacksonville Center
03:32PM 31.1606 -82.2467 324° Northwest 371 427 22,900 1,680 Climbing Jacksonville Center
03:33PM 31.2444 -82.3192 324° Northwest 371 427 24,400 1,800 Climbing Jacksonville Center
03:34PM 31.3325 -82.3917 325° Northwest 376 433 26,500 2,100 Climbing Jacksonville Center
03:35PM 31.4164 -82.4642 324° Northwest 381 438 28,600 1,980 Climbing Jacksonville Center
03:38PM 31.6050 -82.6272 324° Northwest 358 412 33,000 1,320 Climbing Atlanta Center
03:39PM 31.6808 -82.6967 322° Northwest 350 403 33,000  Level Atlanta Center
03:40PM 31.7608 -82.7639 324° Northwest 350 403 33,000  Level Atlanta Center
03:41PM 31.8347 -82.8311 322° Northwest 350 403 33,000  Level Atlanta Center
03:42PM 31.9144 -82.8986 324° Northwest 350 403 33,000 480 Level Atlanta Center
03:43PM 31.9944 -82.9664 324° Northwest 350 403 34,000 480 Climbing Atlanta Center
03:44PM 32.0703 -83.0339 323° Northwest 350 403 34,000  Level Atlanta Center
03:45PM 32.1458 -83.1017 323° Northwest 350 403 34,000  Level Atlanta Center
03:46PM 32.2256 -83.1722 323° Northwest 350 403 34,000  Level Atlanta Center
03:47PM 32.3014 -83.2378 324° Northwest 350 403 34,000  Level Atlanta Center
03:48PM 32.3769 -83.3058 323° Northwest 350 403 34,000  Level Atlanta Center
03:49PM 32.4544 -83.3742 323° Northwest 350 403 34,000  Level Atlanta Center
03:50PM 32.5300 -83.4425 323° Northwest 350 403 34,000  Level Atlanta Center
03:51PM 32.6056 -83.5111 323° Northwest 350 403 34,000  Level Atlanta Center
03:52PM 32.6808 -83.5775 323° Northwest 350 403 34,000  Level Atlanta Center
03:53PM 32.7583 -83.6461 323° Northwest 350 403 34,000  Level Atlanta Center
03:54PM 32.8336 -83.7150 322° Northwest 350 403 34,000  Level Atlanta Center
03:55PM 32.9111 -83.7839 323° Northwest 350 403 34,000  Level Atlanta Center
03:56PM 32.9864 -83.8531 322° Northwest 350 403 34,000  Level Atlanta Center
03:57PM 33.0489 -83.9100 323° Northwest 350 403 34,000  Level Atlanta Center
03:58PM 33.1367 -83.9942 321° Northwest 345 397 34,000  Level Atlanta Center
03:59PM 33.2119 -84.0611 323° Northwest 345 397 34,000  Level Atlanta Center
04:00PM 33.2892 -84.1283 324° Northwest 345 397 34,000  Level Atlanta Center
04:01PM 33.3642 -84.1981 322° Northwest 345 397 34,000  Level Atlanta Center
04:02PM 33.4372 -84.2678 321° Northwest 345 397 34,000  Level Atlanta Center
04:03PM 33.5142 -84.3353 324° Northwest 345 397 34,000  Level Atlanta Center
04:04PM 33.5808 -84.3953 323° Northwest 345 397 34,000  Level Atlanta Center
04:05PM 33.6619 -84.4556 328° Northwest 345 397 34,000  Level Atlanta Center
04:06PM 33.7536 -84.4986 339° North 346 398 34,000  Level Atlanta Center
04:07PM 33.8600 -84.5492 338° Northwest 358 412 34,000  Level Atlanta Center
04:08PM 33.9536 -84.5897 340° North 358 412 34,000  Level Atlanta Center
04:09PM 34.0411 -84.6406 334° Northwest 353 406 34,000  Level Atlanta Center
04:10PM 34.1264 -84.6911 334° Northwest 348 400 34,000  Level Atlanta Center
04:11PM 34.2158 -84.7447 334° Northwest 353 406 34,000  Level Atlanta Center
04:12PM 34.3053 -84.7983 334° Northwest 353 406 34,000  Level Atlanta Center
04:13PM 34.3822 -84.8442 334° Northwest 347 399 34,000  Level Atlanta Center
04:14PM 34.4675 -84.8981 332° Northwest 347 399 34,000  Level Atlanta Center
04:15PM 34.5569 -84.9519 334° Northwest 347 399 34,000 -360 Level Atlanta Center
04:16PM 34.6442 -85.0058 333° Northwest 346 398 33,300 -960 Descending Atlanta Center
04:17PM 34.7269 -85.0725 327° Northwest 335 386 32,100 -1,080 Descending Atlanta Center
04:18PM 34.8100 -85.1367 328° Northwest 340 391 31,200 -900 Descending Atlanta Center
04:19PM 34.8969 -85.2061 327° Northwest 360 414 30,300 -960 Descending Atlanta Center
04:20PM 34.9839 -85.2733 328° Northwest 365 420 29,300 -900 Descending Atlanta Center
04:21PM 35.0625 -85.3328 328° Northwest 365 420 28,500 -1,500 Descending Atlanta Center
04:22PM 35.1906 -85.4467 324° Northwest 371 427 25,600 -1,800 Descending Memphis Center
04:23PM 35.2561 -85.5333 313° West 351 404 24,000 -780 Descending Memphis Center
04:24PM 35.3192 -85.6119 315° West 330 380 24,000  Level Memphis Center
04:25PM 35.3883 -85.7008 314° West 349 402 24,000 -720 Level Memphis Center
04:26PM 35.4575 -85.7894 314° West 354 407 22,600 -2,040 Descending Memphis Center
04:27PM 35.5383 -85.8944 313° West 354 407 19,900 -2,280 Descending Memphis Center
04:28PM 35.6019 -85.9792 313° West 342 394 18,000 -2,100 Descending Memphis Center
04:29PM 35.6622 -86.0586 313° West 342 394 15,600 -2,400 Descending Memphis Center
04:30PM 35.7381 -86.1617 312° West 345 397 13,100 -2,280 Descending Memphis Center
04:31PM 35.8006 -86.2453 313° West 335 386 11,000 -1,500 Descending Memphis Center
04:32PM 35.8619 -86.3236 314° West 321 369 10,100 -1,080 Descending Memphis Center
04:34PM 35.9158 -86.3942 313° West 288 331 8,900 -1,260 Descending Memphis Center
04:35PM 35.9681 -86.4639 313° West 278 320 7,500 -1,260 Descending Memphis Center
04:36PM 36.0192 -86.5308 313° West 272 313 6,300 -1,080 Descending Memphis Center
04:37PM 36.0742 -86.5756 327° Northwest 256 295 5,300 -960 Descending Memphis Center
04:38PM 36.1350 -86.5497 19° North 235 270 4,400 -1,260 Descending Memphis Center
04:39PM 36.2022 -86.5389 North 223 257 2,800 -1,260 Descending Memphis Center
04:40PM 36.2147 -86.6067 283° West 207 238 1,900 -600 Descending Memphis Center
04:41PM 36.1811 -86.6403 219° Southwest 171 197 1,600 -540 Descending Memphis Center
04:42PM 36.1442 -86.6550 198° South 149 171 800 -480 Descending Memphis Center
04:43PM 36.1086 -86.6694 198° South 147 169 700 -120 Descending Memphis Center